createdAt,value
2022-12-28T00:00:06.020Z,7.8
2022-12-28T00:01:06.158Z,7.79
2022-12-28T00:02:06.411Z,7.75
2022-12-28T00:03:06.260Z,7.85
2022-12-28T00:04:05.906Z,7.82
2022-12-28T00:05:06.187Z,7.76
2022-12-28T00:06:06.226Z,7.8
2022-12-28T00:07:05.958Z,7.79
2022-12-28T00:08:06.756Z,7.77
2022-12-28T00:09:06.284Z,7.8
2022-12-28T00:10:06.258Z,7.79
2022-12-28T00:11:30.633Z,7.8
2022-12-28T00:12:06.016Z,7.82
2022-12-28T00:13:06.048Z,7.8
2022-12-28T00:14:06.505Z,7.79
2022-12-28T00:15:06.339Z,7.87
2022-12-28T00:16:05.894Z,7.8
2022-12-28T00:17:06.279Z,7.77
2022-12-28T00:18:06.425Z,7.79
2022-12-28T00:19:06.159Z,7.85
2022-12-28T00:20:06.170Z,7.83
2022-12-28T00:21:06.432Z,7.82
2022-12-28T00:22:06.442Z,7.8
2022-12-28T00:23:06.301Z,7.83
2022-12-28T00:24:06.500Z,7.77
2022-12-28T00:25:06.483Z,7.8
2022-12-28T00:26:06.243Z,7.83
2022-12-28T00:27:06.531Z,7.83
2022-12-28T00:28:06.537Z,7.79
2022-12-28T00:29:10.207Z,7.8
2022-12-28T00:30:06.609Z,7.87
2022-12-28T00:31:06.570Z,7.8
2022-12-28T00:32:06.806Z,7.82
2022-12-28T00:33:06.610Z,7.8
2022-12-28T00:34:06.682Z,7.8
2022-12-28T00:35:06.383Z,7.82
2022-12-28T00:36:06.419Z,7.77
2022-12-28T00:37:16.893Z,7.8
2022-12-28T00:38:06.413Z,7.82
2022-12-28T00:39:06.692Z,7.83
2022-12-28T00:40:06.776Z,7.83
2022-12-28T00:41:06.462Z,7.75
2022-12-28T00:42:06.747Z,7.82
2022-12-28T00:43:06.759Z,7.73
2022-12-28T00:44:06.769Z,7.8
2022-12-28T00:45:06.818Z,7.8
2022-12-28T00:46:07.056Z,7.83
2022-12-28T00:47:06.845Z,7.82
2022-12-28T00:48:06.827Z,7.83
2022-12-28T00:49:06.845Z,7.79
2022-12-28T00:50:06.935Z,7.79
2022-12-28T00:51:06.883Z,7.8
2022-12-28T00:52:06.649Z,7.73
2022-12-28T00:53:06.957Z,7.82
2022-12-28T00:54:06.960Z,7.77
2022-12-28T00:55:06.682Z,7.8
2022-12-28T00:56:06.962Z,7.82
2022-12-28T00:57:06.968Z,7.75
2022-12-28T00:58:06.703Z,7.79
2022-12-28T00:59:06.758Z,7.83
2022-12-28T01:00:07.019Z,7.82
2022-12-28T01:01:07.399Z,7.8
2022-12-28T01:02:07.548Z,7.79
2022-12-28T01:03:07.232Z,7.82
2022-12-28T01:04:07.053Z,7.79
2022-12-28T01:05:07.092Z,7.77
2022-12-28T01:06:07.158Z,7.8
2022-12-28T01:07:07.129Z,7.7
2022-12-28T01:08:07.316Z,7.72
2022-12-28T01:09:07.138Z,7.69
2022-12-28T01:10:06.949Z,7.82
2022-12-28T01:11:07.162Z,7.76
2022-12-28T01:12:07.217Z,7.82
2022-12-28T01:13:07.190Z,7.82
2022-12-28T01:14:07.211Z,7.82
2022-12-28T01:15:07.229Z,7.79
2022-12-28T01:16:07.417Z,7.79
2022-12-28T01:17:07.032Z,7.75
2022-12-28T01:18:08.445Z,7.77
2022-12-28T01:19:07.347Z,7.77
2022-12-28T01:20:07.290Z,7.83
2022-12-28T01:21:07.324Z,7.79
2022-12-28T01:22:07.379Z,7.8
2022-12-28T01:23:07.360Z,7.77
2022-12-28T01:24:06.843Z,7.73
2022-12-28T01:25:07.381Z,7.77
2022-12-28T01:26:07.118Z,7.76
2022-12-28T01:27:07.382Z,7.8
2022-12-28T01:28:07.203Z,7.69
2022-12-28T01:29:07.194Z,7.83
2022-12-28T01:30:07.447Z,7.76
2022-12-28T01:31:07.203Z,7.75
2022-12-28T01:32:07.671Z,7.77
2022-12-28T01:33:07.525Z,7.82
2022-12-28T01:34:08.893Z,7.75
2022-12-28T01:35:07.519Z,7.75
2022-12-28T01:36:07.526Z,7.79
2022-12-28T01:37:07.559Z,7.69
2022-12-28T01:38:07.655Z,7.72
2022-12-28T01:39:07.765Z,7.76
2022-12-28T01:40:07.101Z,7.75
2022-12-28T01:41:07.513Z,7.82
2022-12-28T01:42:08.810Z,7.72
2022-12-28T01:43:07.571Z,7.69
2022-12-28T01:44:07.909Z,7.82
2022-12-28T01:45:07.619Z,7.75
2022-12-28T01:46:07.926Z,7.82
2022-12-28T01:47:07.692Z,7.72
2022-12-28T01:48:09.082Z,7.75
2022-12-28T01:49:07.801Z,7.73
2022-12-28T01:50:07.825Z,7.67
2022-12-28T01:51:07.574Z,7.75
2022-12-28T01:52:07.859Z,7.72
2022-12-28T01:53:07.792Z,7.79
2022-12-28T01:54:07.868Z,7.75
2022-12-28T01:55:07.813Z,7.72
2022-12-28T01:56:07.879Z,7.76
2022-12-28T01:57:07.593Z,7.72
2022-12-28T01:58:07.876Z,7.79
2022-12-28T01:59:07.857Z,7.72
2022-12-28T02:00:07.656Z,7.67
2022-12-28T02:01:08.909Z,7.66
2022-12-28T02:02:08.585Z,7.77
2022-12-28T02:03:08.172Z,7.76
2022-12-28T02:04:07.953Z,7.75
2022-12-28T02:05:07.688Z,7.79
2022-12-28T02:06:09.006Z,7.76
2022-12-28T02:07:07.999Z,7.72
2022-12-28T02:08:08.210Z,7.75
2022-12-28T02:09:08.006Z,7.72
2022-12-28T02:10:49.301Z,7.66
2022-12-28T02:11:08.084Z,7.75
2022-12-28T02:12:08.117Z,7.69
2022-12-28T02:13:08.015Z,7.77
2022-12-28T02:14:08.122Z,7.77
2022-12-28T02:15:08.168Z,7.79
2022-12-28T02:16:08.132Z,7.69
2022-12-28T02:17:08.130Z,7.67
2022-12-28T02:18:07.628Z,7.75
2022-12-28T02:19:08.156Z,7.72
2022-12-28T02:20:08.174Z,7.8
2022-12-28T02:21:08.181Z,7.79
2022-12-28T02:22:07.942Z,7.66
2022-12-28T02:23:08.241Z,7.77
2022-12-28T02:24:08.307Z,7.72
2022-12-28T02:25:16.980Z,7.79
2022-12-28T02:26:08.307Z,7.8
2022-12-28T02:27:08.290Z,7.79
2022-12-28T02:28:08.299Z,7.77
2022-12-28T02:29:08.308Z,7.7
2022-12-28T02:30:08.437Z,7.77
2022-12-28T02:31:08.594Z,7.77
2022-12-28T02:32:08.397Z,7.72
2022-12-28T02:33:08.354Z,7.8
2022-12-28T02:34:08.366Z,7.75
2022-12-28T02:35:08.416Z,7.73
2022-12-28T02:36:11.707Z,7.8
2022-12-28T02:37:08.428Z,7.8
2022-12-28T02:38:08.214Z,7.8
2022-12-28T02:39:08.195Z,7.69
2022-12-28T02:40:08.504Z,7.79
2022-12-28T02:41:08.486Z,7.75
2022-12-28T02:42:08.563Z,7.76
2022-12-28T02:43:08.528Z,7.79
2022-12-28T02:44:08.279Z,7.8
2022-12-28T02:45:08.035Z,7.69
2022-12-28T02:46:08.525Z,7.69
2022-12-28T02:47:08.574Z,7.79
2022-12-28T02:48:08.621Z,7.82
2022-12-28T02:49:08.594Z,7.79
2022-12-28T02:50:08.613Z,7.69
2022-12-28T02:51:08.627Z,7.77
2022-12-28T02:52:08.643Z,7.79
2022-12-28T02:53:08.424Z,7.77
2022-12-28T02:54:08.425Z,7.7
2022-12-28T02:55:08.418Z,7.76
2022-12-28T02:56:08.224Z,7.73
2022-12-28T02:57:08.716Z,7.75
2022-12-28T02:58:08.812Z,7.69
2022-12-28T02:59:08.745Z,7.75
2022-12-28T03:00:08.522Z,7.66
2022-12-28T03:01:09.208Z,7.69
2022-12-28T03:02:09.395Z,7.76
2022-12-28T03:03:09.034Z,7.75
2022-12-28T03:04:08.883Z,7.72
2022-12-28T03:05:08.621Z,7.73
2022-12-28T03:06:08.867Z,7.69
2022-12-28T03:07:08.866Z,7.67
2022-12-28T03:08:08.960Z,7.66
2022-12-28T03:09:08.905Z,7.72
2022-12-28T03:10:08.673Z,7.76
2022-12-28T03:11:08.675Z,7.69
2022-12-28T03:12:08.695Z,7.72
2022-12-28T03:13:08.720Z,7.69
2022-12-28T03:14:09.035Z,7.63
2022-12-28T03:15:08.705Z,7.69
2022-12-28T03:16:09.205Z,7.79
2022-12-28T03:17:08.754Z,7.75
2022-12-28T03:18:08.755Z,7.67
2022-12-28T03:19:09.038Z,7.82
2022-12-28T03:20:09.081Z,7.85
2022-12-28T03:21:09.078Z,7.75
2022-12-28T03:22:08.857Z,7.77
2022-12-28T03:23:08.587Z,7.72
2022-12-28T03:24:08.851Z,7.75
2022-12-28T03:25:08.898Z,7.67
2022-12-28T03:26:09.143Z,7.69
2022-12-28T03:27:09.187Z,7.72
2022-12-28T03:28:09.198Z,7.7
2022-12-28T03:29:09.196Z,7.73
2022-12-28T03:30:09.264Z,7.79
2022-12-28T03:31:09.310Z,7.72
2022-12-28T03:32:08.974Z,7.7
2022-12-28T03:33:09.261Z,7.77
2022-12-28T03:34:09.349Z,7.76
2022-12-28T03:35:09.282Z,7.72
2022-12-28T03:36:09.342Z,7.76
2022-12-28T03:37:09.305Z,7.83
2022-12-28T03:38:09.079Z,7.79
2022-12-28T03:39:09.094Z,7.72
2022-12-28T03:40:09.364Z,7.72
2022-12-28T03:41:09.378Z,7.69
2022-12-28T03:42:09.387Z,7.73
2022-12-28T03:43:09.494Z,7.72
2022-12-28T03:44:08.897Z,7.69
2022-12-28T03:45:09.426Z,7.69
2022-12-28T03:46:09.701Z,7.69
2022-12-28T03:47:09.455Z,7.67
2022-12-28T03:48:09.487Z,7.66
2022-12-28T03:49:09.489Z,7.63
2022-12-28T03:50:09.493Z,7.73
2022-12-28T03:51:09.551Z,7.72
2022-12-28T03:52:09.310Z,7.72
2022-12-28T03:53:09.543Z,7.72
2022-12-28T03:54:09.564Z,7.75
2022-12-28T03:55:09.589Z,7.82
2022-12-28T03:56:09.595Z,7.77
2022-12-28T03:57:09.615Z,7.72
2022-12-28T03:58:09.419Z,7.72
2022-12-28T03:59:09.392Z,7.82
2022-12-28T04:00:09.408Z,7.61
2022-12-28T04:01:09.809Z,7.79
2022-12-28T04:02:10.174Z,7.76
2022-12-28T04:03:09.857Z,7.72
2022-12-28T04:04:09.586Z,7.61
2022-12-28T04:05:09.711Z,7.72
2022-12-28T04:06:09.736Z,7.69
2022-12-28T04:07:09.518Z,7.7
2022-12-28T04:08:09.583Z,7.69
2022-12-28T04:09:09.789Z,7.72
2022-12-28T04:10:09.824Z,7.75
2022-12-28T04:11:09.834Z,7.77
2022-12-28T04:12:10.642Z,7.7
2022-12-28T04:13:09.900Z,7.69
2022-12-28T04:14:15.454Z,7.69
2022-12-28T04:15:09.876Z,7.7
2022-12-28T04:16:10.083Z,7.75
2022-12-28T04:17:10.522Z,7.66
2022-12-28T04:18:09.989Z,7.66
2022-12-28T04:19:09.696Z,7.69
2022-12-28T04:20:09.713Z,7.69
2022-12-28T04:21:09.705Z,7.69
2022-12-28T04:22:09.965Z,7.72
2022-12-28T04:23:09.739Z,7.67
2022-12-28T04:24:09.506Z,7.75
2022-12-28T04:25:10.032Z,7.72
2022-12-28T04:26:10.035Z,7.77
2022-12-28T04:27:10.036Z,7.72
2022-12-28T04:28:10.622Z,7.69
2022-12-28T04:29:10.092Z,7.72
2022-12-28T04:30:10.097Z,7.72
2022-12-28T04:31:10.028Z,7.66
2022-12-28T04:32:10.116Z,7.69
2022-12-28T04:33:10.152Z,7.69
2022-12-28T04:34:10.208Z,7.69
2022-12-28T04:35:09.981Z,7.69
2022-12-28T04:36:10.198Z,7.72
2022-12-28T04:37:09.934Z,7.66
2022-12-28T04:38:10.209Z,7.69
2022-12-28T04:39:09.985Z,7.69
2022-12-28T04:40:10.263Z,7.82
2022-12-28T04:41:09.757Z,7.83
2022-12-28T04:42:10.006Z,7.72
2022-12-28T04:43:10.280Z,7.76
2022-12-28T04:44:10.050Z,7.75
2022-12-28T04:45:09.792Z,7.77
2022-12-28T04:46:10.695Z,7.75
2022-12-28T04:47:10.340Z,7.75
2022-12-28T04:48:10.383Z,7.83
2022-12-28T04:49:11.022Z,7.7
2022-12-28T04:50:10.449Z,7.67
2022-12-28T04:51:10.409Z,7.66
2022-12-28T04:52:10.171Z,7.72
2022-12-28T04:53:10.416Z,7.79
2022-12-28T04:54:10.451Z,7.66
2022-12-28T04:55:34.653Z,7.73
2022-12-28T04:56:10.472Z,7.82
2022-12-28T04:57:10.529Z,7.79
2022-12-28T04:58:10.523Z,7.82
2022-12-28T04:59:10.511Z,7.82
2022-12-28T05:00:10.528Z,7.83
2022-12-28T05:01:10.597Z,7.8
2022-12-28T05:02:11.155Z,7.85
2022-12-28T05:03:11.241Z,7.79
2022-12-28T05:04:10.599Z,7.82
2022-12-28T05:05:10.671Z,7.82
2022-12-28T05:06:10.667Z,7.79
2022-12-28T05:07:10.637Z,7.8
2022-12-28T05:08:10.447Z,7.75
2022-12-28T05:09:10.421Z,7.8
2022-12-28T05:10:10.420Z,7.8
2022-12-28T05:11:10.449Z,7.8
2022-12-28T05:12:10.437Z,7.8
2022-12-28T05:13:10.738Z,7.76
2022-12-28T05:14:10.763Z,7.79
2022-12-28T05:15:10.762Z,7.73
2022-12-28T05:16:10.469Z,7.77
2022-12-28T05:17:10.782Z,7.82
2022-12-28T05:18:10.780Z,7.76
2022-12-28T05:19:10.830Z,7.75
2022-12-28T05:20:10.565Z,7.85
2022-12-28T05:21:10.864Z,7.77
2022-12-28T05:22:10.912Z,7.79
2022-12-28T05:23:10.910Z,7.85
2022-12-28T05:24:10.653Z,7.8
2022-12-28T05:25:10.924Z,7.85
2022-12-28T05:26:10.959Z,7.8
2022-12-28T05:27:10.704Z,7.8
2022-12-28T05:28:10.961Z,7.82
2022-12-28T05:29:10.956Z,7.85
2022-12-28T05:30:10.951Z,7.79
2022-12-28T05:31:11.247Z,7.82
2022-12-28T05:32:10.730Z,7.82
2022-12-28T05:33:11.001Z,7.85
2022-12-28T05:34:11.133Z,7.79
2022-12-28T05:35:10.786Z,7.87
2022-12-28T05:36:11.068Z,7.79
2022-12-28T05:37:13.428Z,7.83
2022-12-28T05:38:11.138Z,7.8
2022-12-28T05:39:10.897Z,7.8
2022-12-28T05:40:11.125Z,7.83
2022-12-28T05:41:10.894Z,7.82
2022-12-28T05:42:10.883Z,7.83
2022-12-28T05:43:11.202Z,7.85
2022-12-28T05:44:11.163Z,7.88
2022-12-28T05:45:11.009Z,7.8
2022-12-28T05:46:11.235Z,7.88
2022-12-28T05:47:11.467Z,7.88
2022-12-28T05:48:10.983Z,7.88
2022-12-28T05:49:11.265Z,7.88
2022-12-28T05:50:11.261Z,7.82
2022-12-28T05:51:11.284Z,7.88
2022-12-28T05:52:11.021Z,7.83
2022-12-28T05:53:11.308Z,7.88
2022-12-28T05:54:11.414Z,7.82
2022-12-28T05:55:11.096Z,7.83
2022-12-28T05:56:18.488Z,7.88
2022-12-28T05:57:11.367Z,7.82
2022-12-28T05:58:11.386Z,7.83
2022-12-28T05:59:11.421Z,7.87
2022-12-28T06:00:11.407Z,7.88
2022-12-28T06:01:11.580Z,7.88
2022-12-28T06:02:11.680Z,7.9
2022-12-28T06:03:12.032Z,7.82
2022-12-28T06:04:11.486Z,7.8
2022-12-28T06:05:11.497Z,7.85
2022-12-28T06:06:11.242Z,7.8
2022-12-28T06:07:11.540Z,7.91
2022-12-28T06:08:11.594Z,7.88
2022-12-28T06:09:11.545Z,7.8
2022-12-28T06:10:11.609Z,7.85
2022-12-28T06:11:11.315Z,7.9
2022-12-28T06:12:11.361Z,7.83
2022-12-28T06:13:11.610Z,7.82
2022-12-28T06:14:11.509Z,7.82
2022-12-28T06:15:11.643Z,7.87
2022-12-28T06:16:11.846Z,7.87
2022-12-28T06:17:11.673Z,7.85
2022-12-28T06:18:11.675Z,7.79
2022-12-28T06:19:11.695Z,7.79
2022-12-28T06:20:11.707Z,7.83
2022-12-28T06:21:11.729Z,7.87
2022-12-28T06:22:11.725Z,7.85
2022-12-28T06:23:11.491Z,7.79
2022-12-28T06:24:11.798Z,7.85
2022-12-28T06:25:11.763Z,7.91
2022-12-28T06:26:11.840Z,7.88
2022-12-28T06:27:11.825Z,7.94
2022-12-28T06:28:11.563Z,7.91
2022-12-28T06:29:11.837Z,7.85
2022-12-28T06:30:11.584Z,7.83
2022-12-28T06:31:11.879Z,7.91
2022-12-28T06:32:12.095Z,7.85
2022-12-28T06:33:11.641Z,7.91
2022-12-28T06:34:11.922Z,7.82
2022-12-28T06:35:11.662Z,7.87
2022-12-28T06:36:20.139Z,7.82
2022-12-28T06:37:11.693Z,7.88
2022-12-28T06:38:11.715Z,7.91
2022-12-28T06:39:11.746Z,7.82
2022-12-28T06:40:12.015Z,7.91
2022-12-28T06:41:20.075Z,7.91
2022-12-28T06:42:12.065Z,7.85
2022-12-28T06:43:11.791Z,7.85
2022-12-28T06:44:11.846Z,7.88
2022-12-28T06:45:11.830Z,7.83
2022-12-28T06:46:12.039Z,7.91
2022-12-28T06:47:12.131Z,7.82
2022-12-28T06:48:11.587Z,7.91
2022-12-28T06:49:11.876Z,7.9
2022-12-28T06:50:11.887Z,7.9
2022-12-28T06:51:12.163Z,7.95
2022-12-28T06:52:12.191Z,7.91
2022-12-28T06:53:12.203Z,7.94
2022-12-28T06:54:11.975Z,7.9
2022-12-28T06:55:12.227Z,7.9
2022-12-28T06:56:12.236Z,7.94
2022-12-28T06:57:12.020Z,7.88
2022-12-28T06:58:12.280Z,7.87
2022-12-28T06:59:12.028Z,7.85
2022-12-28T07:00:12.109Z,7.9
2022-12-28T07:01:12.971Z,7.95
2022-12-28T07:02:12.670Z,7.9
2022-12-28T07:03:12.480Z,7.9
2022-12-28T07:04:12.423Z,7.9
2022-12-28T07:05:12.102Z,7.93
2022-12-28T07:06:12.335Z,7.9
2022-12-28T07:07:12.387Z,7.93
2022-12-28T07:08:17.628Z,8.01
2022-12-28T07:09:12.192Z,7.9
2022-12-28T07:10:12.178Z,7.95
2022-12-28T07:11:12.538Z,7.88
2022-12-28T07:12:12.467Z,7.9
2022-12-28T07:13:12.510Z,7.88
2022-12-28T07:14:12.334Z,7.85
2022-12-28T07:15:12.505Z,7.9
2022-12-28T07:16:12.319Z,7.9
2022-12-28T07:17:12.533Z,7.93
2022-12-28T07:18:12.575Z,7.93
2022-12-28T07:19:12.623Z,7.88
2022-12-28T07:20:12.597Z,7.83
2022-12-28T07:21:12.608Z,7.9
2022-12-28T07:22:12.621Z,7.85
2022-12-28T07:23:12.639Z,7.88
2022-12-28T07:24:12.839Z,7.85
2022-12-28T07:25:12.669Z,7.82
2022-12-28T07:26:12.432Z,7.85
2022-12-28T07:27:12.428Z,7.88
2022-12-28T07:28:12.261Z,7.93
2022-12-28T07:29:13.071Z,7.91
2022-12-28T07:30:12.510Z,7.95
2022-12-28T07:31:12.967Z,7.88
2022-12-28T07:32:12.980Z,7.95
2022-12-28T07:33:12.975Z,7.93
2022-12-28T07:34:12.907Z,7.94
2022-12-28T07:35:12.937Z,7.97
2022-12-28T07:36:12.551Z,7.85
2022-12-28T07:37:12.572Z,7.85
2022-12-28T07:38:16.585Z,7.85
2022-12-28T07:39:13.085Z,7.97
2022-12-28T07:40:12.940Z,7.9
2022-12-28T07:41:12.937Z,7.97
2022-12-28T07:42:12.923Z,7.98
2022-12-28T07:43:12.941Z,7.98
2022-12-28T07:44:12.963Z,7.98
2022-12-28T07:45:12.988Z,7.95
2022-12-28T07:46:13.135Z,7.94
2022-12-28T07:47:12.984Z,7.9
2022-12-28T07:48:13.029Z,7.97
2022-12-28T07:49:13.081Z,8
2022-12-28T07:50:12.922Z,7.98
2022-12-28T07:51:13.091Z,7.93
2022-12-28T07:52:13.046Z,7.95
2022-12-28T07:53:16.047Z,7.94
2022-12-28T07:54:13.068Z,8.01
2022-12-28T07:55:13.100Z,7.95
2022-12-28T07:56:13.098Z,7.94
2022-12-28T07:57:13.173Z,8
2022-12-28T07:58:13.129Z,7.93
2022-12-28T07:59:13.160Z,7.91
2022-12-28T08:00:12.656Z,7.95
2022-12-28T08:01:13.679Z,7.98
2022-12-28T08:02:13.387Z,7.98
2022-12-28T08:03:13.316Z,7.98
2022-12-28T08:04:12.971Z,7.94
2022-12-28T08:05:13.251Z,7.98
2022-12-28T08:06:13.263Z,7.91
2022-12-28T08:07:13.303Z,7.93
2022-12-28T08:08:13.425Z,8.01
2022-12-28T08:09:13.313Z,7.97
2022-12-28T08:10:13.315Z,7.94
2022-12-28T08:11:13.341Z,7.98
2022-12-28T08:12:13.367Z,8.03
2022-12-28T08:13:13.389Z,8.03
2022-12-28T08:14:13.368Z,8
2022-12-28T08:15:13.143Z,7.95
2022-12-28T08:16:13.296Z,7.98
2022-12-28T08:17:21.131Z,8
2022-12-28T08:18:13.452Z,8
2022-12-28T08:19:13.499Z,7.93
2022-12-28T08:20:13.459Z,8
2022-12-28T08:21:13.493Z,8.01
2022-12-28T08:22:13.529Z,8.01
2022-12-28T08:23:13.550Z,8
2022-12-28T08:24:13.518Z,8.05
2022-12-28T08:25:13.529Z,8.1
2022-12-28T08:26:13.543Z,7.98
2022-12-28T08:27:14.710Z,8.01
2022-12-28T08:28:14.729Z,8.12
2022-12-28T08:29:13.658Z,8.1
2022-12-28T08:30:13.355Z,8.06
2022-12-28T08:31:13.818Z,8.01
2022-12-28T08:32:13.663Z,7.98
2022-12-28T08:33:13.672Z,8.03
2022-12-28T08:34:13.705Z,8
2022-12-28T08:35:13.418Z,8
2022-12-28T08:36:13.480Z,8.01
2022-12-28T08:37:13.795Z,7.97
2022-12-28T08:38:13.739Z,8.09
2022-12-28T08:39:13.755Z,8.09
2022-12-28T08:40:13.504Z,8.09
2022-12-28T08:41:13.817Z,8.12
2022-12-28T08:42:13.811Z,8.12
2022-12-28T08:43:13.805Z,8.09
2022-12-28T08:44:13.836Z,8.03
2022-12-28T08:45:13.829Z,7.97
2022-12-28T08:46:14.524Z,8.09
2022-12-28T08:47:14.043Z,8.09
2022-12-28T08:48:13.610Z,8.12
2022-12-28T08:49:13.940Z,8.08
2022-12-28T08:50:26.574Z,8.1
2022-12-28T08:51:13.694Z,8.08
2022-12-28T08:52:13.936Z,8.12
2022-12-28T08:53:13.959Z,8.09
2022-12-28T08:54:13.744Z,8.09
2022-12-28T08:55:14.026Z,8.06
2022-12-28T08:56:13.738Z,8.15
2022-12-28T08:57:14.011Z,8.12
2022-12-28T08:58:14.017Z,8.03
2022-12-28T08:59:13.845Z,8.09
2022-12-28T09:00:14.079Z,8.1
2022-12-28T09:01:14.696Z,8.16
2022-12-28T09:02:14.260Z,8.1
2022-12-28T09:03:14.602Z,8.13
2022-12-28T09:04:14.101Z,8.06
2022-12-28T09:05:14.192Z,8.08
2022-12-28T09:06:13.895Z,8.13
2022-12-28T09:07:14.157Z,8.12
2022-12-28T09:08:14.214Z,8.16
2022-12-28T09:09:14.217Z,8.13
2022-12-28T09:10:14.510Z,8.1
2022-12-28T09:11:14.242Z,8.12
2022-12-28T09:12:13.983Z,8.05
2022-12-28T09:13:14.239Z,8.06
2022-12-28T09:14:23.988Z,8.27
2022-12-28T09:15:14.279Z,8.12
2022-12-28T09:16:14.547Z,8.2
2022-12-28T09:17:14.299Z,8.1
2022-12-28T09:18:14.364Z,8.13
2022-12-28T09:19:14.344Z,8.13
2022-12-28T09:20:14.348Z,8.13
2022-12-28T09:21:14.385Z,8.12
2022-12-28T09:22:14.410Z,8.16
2022-12-28T09:23:14.399Z,8.16
2022-12-28T09:24:14.415Z,8.09
2022-12-28T09:25:14.423Z,8.16
2022-12-28T09:26:14.443Z,8.16
2022-12-28T09:27:14.492Z,8.19
2022-12-28T09:28:14.484Z,8.18
2022-12-28T09:29:14.496Z,8.13
2022-12-28T09:30:13.968Z,8.13
2022-12-28T09:31:14.663Z,8.16
2022-12-28T09:32:14.279Z,8.19
2022-12-28T09:33:14.560Z,8.12
2022-12-28T09:34:44.305Z,8.16
2022-12-28T09:35:14.593Z,8.18
2022-12-28T09:36:14.325Z,8.16
2022-12-28T09:37:14.372Z,8.15
2022-12-28T09:38:14.670Z,8.18
2022-12-28T09:39:14.551Z,8.16
2022-12-28T09:40:14.373Z,8.2
2022-12-28T09:41:14.421Z,8.16
2022-12-28T09:42:14.687Z,8.18
2022-12-28T09:43:14.461Z,8.2
2022-12-28T09:44:14.709Z,8.18
2022-12-28T09:45:14.460Z,8.24
2022-12-28T09:46:14.949Z,8.19
2022-12-28T09:47:14.763Z,8.19
2022-12-28T09:48:14.804Z,8.2
2022-12-28T09:49:14.797Z,8.15
2022-12-28T09:50:14.803Z,8.19
2022-12-28T09:51:14.806Z,8.24
2022-12-28T09:52:15.772Z,8.27
2022-12-28T09:53:14.901Z,8.24
2022-12-28T09:54:14.884Z,8.23
2022-12-28T09:55:14.618Z,8.24
2022-12-28T09:56:14.880Z,8.23
2022-12-28T09:57:14.936Z,8.27
2022-12-28T09:58:14.903Z,8.3
2022-12-28T09:59:14.950Z,8.24
2022-12-28T10:00:14.432Z,8.3
2022-12-28T10:01:15.334Z,8.27
2022-12-28T10:02:14.872Z,8.28
2022-12-28T10:03:15.153Z,8.27
2022-12-28T10:04:15.008Z,8.26
2022-12-28T10:05:15.030Z,8.33
2022-12-28T10:06:15.032Z,8.36
2022-12-28T10:07:15.047Z,8.27
2022-12-28T10:08:14.753Z,8.28
2022-12-28T10:09:15.098Z,8.28
2022-12-28T10:10:15.120Z,8.3
2022-12-28T10:11:15.104Z,8.31
2022-12-28T10:12:14.869Z,8.3
2022-12-28T10:13:58.563Z,8.3
2022-12-28T10:14:15.045Z,8.36
2022-12-28T10:15:15.390Z,8.3
2022-12-28T10:16:15.227Z,8.36
2022-12-28T10:17:15.392Z,8.34
2022-12-28T10:18:15.312Z,8.36
2022-12-28T10:19:15.369Z,8.28
2022-12-28T10:20:15.164Z,8.31
2022-12-28T10:21:15.385Z,8.3
2022-12-28T10:22:15.353Z,8.34
2022-12-28T10:23:15.354Z,8.34
2022-12-28T10:24:45.047Z,8.38
2022-12-28T10:25:15.410Z,8.34
2022-12-28T10:26:15.372Z,8.36
2022-12-28T10:27:15.134Z,8.38
2022-12-28T10:28:15.391Z,8.38
2022-12-28T10:29:15.381Z,8.37
2022-12-28T10:30:15.373Z,8.44
2022-12-28T10:31:15.403Z,8.34
2022-12-28T10:32:15.379Z,8.42
2022-12-28T10:33:19.601Z,8.38
2022-12-28T10:34:15.810Z,8.37
2022-12-28T10:35:15.709Z,8.44
2022-12-28T10:36:15.569Z,8.37
2022-12-28T10:37:19.551Z,8.36
2022-12-28T10:38:16.640Z,8.33
2022-12-28T10:39:16.703Z,8.37
2022-12-28T10:40:15.768Z,8.44
2022-12-28T10:41:15.547Z,8.36
2022-12-28T10:42:15.684Z,8.37
2022-12-28T10:43:16.216Z,8.41
2022-12-28T10:44:43.814Z,8.36
2022-12-28T10:45:15.981Z,8.42
2022-12-28T10:46:15.440Z,8.38
2022-12-28T10:47:16.192Z,8.37
2022-12-28T10:48:15.403Z,8.45
2022-12-28T11:03:29.682Z,8.49
2022-12-28T11:04:29.229Z,8.44
2022-12-28T11:05:29.001Z,8.55
2022-12-28T11:06:32.049Z,8.48
2022-12-28T11:07:29.297Z,8.41
2022-12-28T11:08:29.587Z,8.51
2022-12-28T11:09:29.095Z,8.49
2022-12-28T11:10:29.350Z,8.52
2022-12-28T11:11:29.338Z,8.46
2022-12-28T11:12:29.352Z,8.48
2022-12-28T11:13:29.368Z,8.45
2022-12-28T11:14:29.410Z,8.41
2022-12-28T11:15:29.416Z,8.49
2022-12-28T11:16:29.571Z,8.45
2022-12-28T11:17:29.463Z,8.46
2022-12-28T11:18:33.289Z,8.49
2022-12-28T11:19:29.611Z,8.56
2022-12-28T11:20:29.485Z,8.48
2022-12-28T11:21:29.496Z,8.58
2022-12-28T11:22:29.516Z,8.48
2022-12-28T11:23:29.266Z,8.48
2022-12-28T11:24:31.566Z,8.51
2022-12-28T11:25:29.600Z,8.49
2022-12-28T11:26:29.566Z,8.46
2022-12-28T11:27:29.353Z,8.6
2022-12-28T11:28:29.071Z,8.48
2022-12-28T11:29:29.640Z,8.58
2022-12-28T11:30:29.827Z,8.56
2022-12-28T11:31:29.854Z,8.56
2022-12-28T11:32:29.655Z,8.51
2022-12-28T11:33:29.681Z,8.51
2022-12-28T11:34:29.691Z,8.63
2022-12-28T11:35:29.780Z,8.61
2022-12-28T11:36:29.205Z,8.58
2022-12-28T11:37:29.727Z,8.61
2022-12-28T11:38:29.744Z,8.61
2022-12-28T11:39:29.519Z,8.56
2022-12-28T11:40:29.769Z,8.53
2022-12-28T11:41:37.838Z,8.49
2022-12-28T11:42:46.206Z,8.6
2022-12-28T11:43:29.849Z,8.6
2022-12-28T11:44:29.826Z,8.53
2022-12-28T11:45:30.003Z,8.61
2022-12-28T11:46:29.854Z,8.55
2022-12-28T11:47:33.641Z,8.56
2022-12-28T11:48:29.637Z,8.56
2022-12-28T11:49:29.715Z,8.6
2022-12-28T11:50:29.922Z,8.55
2022-12-28T11:51:30.194Z,8.55
2022-12-28T11:52:30.032Z,8.51
2022-12-28T11:53:29.948Z,8.52
2022-12-28T11:54:29.981Z,8.58
2022-12-28T11:55:29.999Z,8.61
2022-12-28T11:56:30.011Z,8.58
2022-12-28T11:57:30.016Z,8.7
2022-12-28T11:58:30.049Z,8.58
2022-12-28T11:59:29.800Z,8.55
2022-12-28T12:00:30.304Z,8.61
2022-12-28T12:01:30.413Z,8.6
2022-12-28T12:02:30.306Z,8.52
2022-12-28T12:03:30.274Z,8.64
2022-12-28T12:04:29.865Z,8.61
2022-12-28T12:05:29.897Z,8.58
2022-12-28T12:06:42.425Z,8.66
2022-12-28T12:07:36.409Z,8.6
2022-12-28T12:08:30.490Z,8.64
2022-12-28T12:09:30.209Z,8.52
2022-12-28T12:10:29.961Z,8.6
2022-12-28T12:11:30.229Z,8.6
2022-12-28T12:12:29.983Z,8.64
2022-12-28T12:13:30.152Z,8.55
2022-12-28T12:14:30.295Z,8.63
2022-12-28T12:15:30.320Z,8.63
2022-12-28T12:16:30.568Z,8.63
2022-12-28T12:17:30.353Z,8.74
2022-12-28T12:18:30.344Z,8.7
2022-12-28T12:19:30.361Z,8.63
2022-12-28T12:20:30.376Z,8.63
2022-12-28T12:21:30.444Z,8.6
2022-12-28T12:22:30.465Z,8.67
2022-12-28T12:23:30.439Z,8.63
2022-12-28T12:24:30.469Z,8.67
2022-12-28T12:25:30.438Z,8.63
2022-12-28T12:26:30.498Z,8.66
2022-12-28T12:27:30.485Z,8.63
2022-12-28T12:28:30.486Z,8.64
2022-12-28T12:29:30.527Z,8.66
2022-12-28T12:30:30.747Z,8.73
2022-12-28T12:31:30.869Z,8.66
2022-12-28T12:32:30.549Z,8.64
2022-12-28T12:33:30.577Z,8.71
2022-12-28T12:34:30.577Z,8.69
2022-12-28T12:35:30.607Z,8.63
2022-12-28T12:36:30.090Z,8.71
2022-12-28T12:37:30.620Z,8.73
2022-12-28T12:38:30.429Z,8.64
2022-12-28T12:39:30.671Z,8.64
2022-12-28T12:40:30.678Z,8.7
2022-12-28T12:41:30.429Z,8.73
2022-12-28T12:42:30.696Z,8.69
2022-12-28T12:43:30.757Z,8.7
2022-12-28T12:44:30.734Z,8.71
2022-12-28T12:45:30.757Z,8.74
2022-12-28T12:46:30.740Z,8.71
2022-12-28T12:47:30.778Z,8.69
2022-12-28T12:48:30.787Z,8.78
2022-12-28T12:49:30.829Z,8.7
2022-12-28T12:50:30.837Z,8.71
2022-12-28T12:51:30.325Z,8.73
2022-12-28T12:52:30.874Z,8.73
2022-12-28T12:53:30.856Z,8.7
2022-12-28T12:54:30.687Z,8.79
2022-12-28T12:55:30.700Z,8.78
2022-12-28T12:56:30.929Z,8.74
2022-12-28T12:57:30.933Z,8.71
2022-12-28T12:58:30.941Z,8.81
2022-12-28T12:59:30.983Z,8.66
2022-12-28T13:00:30.959Z,8.73
2022-12-28T13:01:31.355Z,8.81
2022-12-28T13:02:31.567Z,8.71
2022-12-28T13:03:31.218Z,8.81
2022-12-28T13:04:31.037Z,8.79
2022-12-28T13:05:30.786Z,8.78
2022-12-28T13:06:31.094Z,8.74
2022-12-28T13:07:31.093Z,8.78
2022-12-28T13:08:30.986Z,8.79
2022-12-28T13:09:31.094Z,8.81
2022-12-28T13:10:31.176Z,8.76
2022-12-28T13:11:31.180Z,8.79
2022-12-28T13:12:31.164Z,8.81
2022-12-28T13:13:31.180Z,8.73
2022-12-28T13:14:31.191Z,8.78
2022-12-28T13:15:31.072Z,8.79
2022-12-28T13:16:30.960Z,8.79
2022-12-28T13:17:31.261Z,8.74
2022-12-28T13:19:00.975Z,8.87
2022-12-28T13:19:31.278Z,8.89
2022-12-28T13:20:31.013Z,8.81
2022-12-28T13:21:31.027Z,8.79
2022-12-28T13:22:31.316Z,8.79
2022-12-28T13:23:31.323Z,8.82
2022-12-28T13:24:31.335Z,8.81
2022-12-28T13:25:31.342Z,8.85
2022-12-28T13:26:31.444Z,8.84
2022-12-28T13:27:31.403Z,8.74
2022-12-28T13:28:31.380Z,8.79
2022-12-28T13:29:31.407Z,8.81
2022-12-28T13:30:31.602Z,8.76
2022-12-28T13:31:31.448Z,8.82
2022-12-28T13:32:38.827Z,8.76
2022-12-28T13:33:31.208Z,8.78
2022-12-28T13:34:31.488Z,8.85
2022-12-28T13:35:31.509Z,8.71
2022-12-28T13:36:31.520Z,8.78